Time;durP1;ratioP1;P1;durP2;ratioP2;P2;SDS_P1;SDS_P2;PMS_P1;PMS_P2;Temp;Humidity;BMP_temperature;BMP_pressure;BME280_temperature;BME280_humidity;BME280_pressure;Samples;Min_cycle;Max_cycle;Signal;HPM_P1;HPM_P2
2022/08/09 00:02:00;;;;;;;4.90;4.50;;;;;;;18.57;100.00;100368.56;1706513;82;21131;-71
2022/08/09 00:04:26;;;;;;;4.58;4.17;;;;;;;18.58;100.00;100359.84;1709622;83;21013;-74
2022/08/09 00:06:53;;;;;;;8.40;4.00;;;;;;;18.58;100.00;100359.84;1709136;83;21517;-74
2022/08/09 00:09:20;;;;;;;5.53;4.95;;;;;;;18.58;100.00;100368.02;1708078;83;21895;-74
2022/08/09 00:11:47;;;;;;;8.23;5.10;;;;;;;18.55;100.00;100364.52;1704441;82;21069;-75
2022/08/09 00:14:14;;;;;;;6.03;5.40;;;;;;;18.54;100.00;100369.14;1687190;84;21013;-73
2022/08/09 00:16:40;;;;;;;7.00;4.92;;;;;;;18.53;100.00;100365.30;1687117;82;21656;-74
2022/08/09 00:19:08;;;;;;;6.22;5.37;;;;;;;18.47;100.00;100368.62;1712415;82;21067;-73
2022/08/09 00:21:39;;;;;;;6.45;5.50;;;;;;;18.40;100.00;100368.69;1690656;83;21306;-72
2022/08/09 00:24:07;;;;;;;7.70;5.67;;;;;;;18.36;100.00;100361.64;1714292;83;21513;-72
2022/08/09 00:26:34;;;;;;;5.85;5.35;;;;;;;18.26;100.00;100360.36;1718272;83;20905;-72
2022/08/09 00:29:02;;;;;;;5.60;5.20;;;;;;;18.18;100.00;100361.77;1702858;82;21001;-73
2022/08/09 00:31:31;;;;;;;5.70;5.20;;;;;;;18.12;100.00;100357.47;1716582;83;21044;-73
2022/08/09 00:33:59;;;;;;;8.23;4.33;;;;;;;18.09;100.00;100362.64;1681480;83;21201;-73
2022/08/09 00:36:26;;;;;;;7.12;5.10;;;;;;;18.09;100.00;100361.29;1718549;83;20953;-73
2022/08/09 00:38:54;;;;;;;5.50;4.83;;;;;;;18.07;100.00;100362.13;1714829;82;21001;-73
2022/08/09 00:41:22;;;;;;;5.28;4.87;;;;;;;18.03;100.00;100362.44;1718151;82;21050;-72
2022/08/09 00:43:49;;;;;;;5.90;5.33;;;;;;;18.01;100.00;100365.98;1719623;83;21423;-72
2022/08/09 00:46:17;;;;;;;4.53;4.22;;;;;;;17.95;100.00;100357.57;1730287;81;21192;-70
2022/08/09 00:48:45;;;;;;;8.15;5.28;;;;;;;17.90;100.00;100355.70;1725100;81;21544;-71
2022/08/09 00:51:11;;;;;;;5.83;5.17;;;;;;;17.92;100.00;100360.87;1719512;83;21056;-72
2022/08/09 00:53:38;;;;;;;8.45;5.05;;;;;;;17.92;100.00;100359.51;1722894;81;21058;-71
2022/08/09 00:56:06;;;;;;;6.15;5.55;;;;;;;17.93;100.00;100370.13;1712527;83;21051;-71
2022/08/09 00:58:34;;;;;;;6.47;5.87;;;;;;;17.94;100.00;100364.13;1688423;83;22008;-71
2022/08/09 01:01:10;;;;;;;5.75;5.15;;;;;;;17.91;100.00;100360.59;1690191;83;21007;-70
2022/08/09 01:04:04;;;;;;;7.22;5.55;;;;;;;17.85;100.00;100359.27;1715582;82;21553;-71
2022/08/09 01:06:36;;;;;;;5.67;5.08;;;;;;;17.85;100.00;100366.61;1692393;81;20992;-71
2022/08/09 01:09:37;;;;;;;6.92;6.33;;;;;;;17.80;100.00;100363.38;1716216;82;21028;-72
2022/08/09 01:12:18;;;;;;;6.67;6.08;;;;;;;17.76;100.00;100365.58;1712568;83;21965;-72
2022/08/09 01:15:06;;;;;;;6.13;5.63;;;;;;;17.72;100.00;100357.17;1688713;83;21040;-71
2022/08/09 01:17:36;;;;;;;6.83;4.95;;;;;;;17.70;100.00;100359.34;1718192;81;20956;-71
2022/08/09 01:20:10;;;;;;;5.67;5.17;;;;;;;17.67;100.00;100355.02;1682631;83;20967;-70
2022/08/09 01:23:04;;;;;;;5.85;5.30;;;;;;;17.66;100.00;100359.65;1680790;83;21061;-71
2022/08/09 01:26:01;;;;;;;6.03;5.53;;;;;;;17.65;100.00;100362.67;1676650;85;21252;-71
2022/08/09 01:28:27;;;;;;;5.70;5.17;;;;;;;17.66;100.00;100376.52;1688097;83;21083;-71
2022/08/09 01:30:56;;;;;;;6.50;5.83;;;;;;;17.67;100.00;100369.98;1673397;85;20949;-72
2022/08/09 01:33:27;;;;;;;7.15;5.30;;;;;;;17.68;100.00;100366.17;1678956;85;21582;-72
2022/08/09 01:36:10;;;;;;;5.55;5.05;;;;;;;17.63;100.00;100367.02;1633335;85;21019;-72
2022/08/09 01:38:41;;;;;;;9.10;5.03;;;;;;;17.63;100.00;100369.73;1722010;82;22105;-72
2022/08/09 01:41:17;;;;;;;6.70;4.78;;;;;;;17.58;100.00;100375.17;1724096;81;21040;-72
2022/08/09 01:43:47;;;;;;;5.95;4.25;;;;;;;17.59;100.00;100370.58;1709804;83;20972;-73
2022/08/09 01:46:14;;;;;;;5.22;4.20;;;;;;;17.59;100.00;100367.31;1727219;81;21066;-73
2022/08/09 01:48:44;;;;;;;6.35;4.42;;;;;;;17.57;100.00;100362.66;1702432;83;21060;-73
2022/08/09 01:51:10;;;;;;;4.42;4.03;;;;;;;17.61;100.00;100362.94;1710021;83;21123;-73
2022/08/09 01:53:37;;;;;;;4.78;4.37;;;;;;;17.65;100.00;100361.31;1718442;83;21023;-74
2022/08/09 01:56:05;;;;;;;3.83;3.52;;;;;;;17.65;100.00;100362.09;1698094;82;21010;-75
2022/08/09 01:58:33;;;;;;;4.78;4.37;;;;;;;17.67;100.00;100360.46;1682430;83;21098;-75
2022/08/09 02:01:01;;;;;;;4.10;3.70;;;;;;;17.69;100.00;100351.48;1730584;82;21032;-73
2022/08/09 02:03:29;;;;;;;4.72;4.33;;;;;;;17.66;100.00;100349.30;1738217;82;21836;-74
2022/08/09 02:05:55;;;;;;;7.40;4.10;;;;;;;17.65;100.00;100353.14;1699207;82;21520;-74
2022/08/09 02:08:23;;;;;;;4.67;4.28;;;;;;;17.64;100.00;100354.23;1707798;83;21506;-74
2022/08/09 02:10:51;;;;;;;8.48;3.95;;;;;;;17.68;100.00;100353.94;1709323;82;21040;-72
2022/08/09 02:13:20;;;;;;;4.00;3.70;;;;;;;17.69;100.00;100356.39;1709423;83;21044;-72
2022/08/09 02:15:48;;;;;;;5.75;4.42;;;;;;;17.68;100.00;100359.37;1709676;84;21178;-72
2022/08/09 02:18:19;;;;;;;4.08;3.77;;;;;;;17.65;100.00;100363.45;1708937;83;20980;-72
2022/08/09 02:20:50;;;;;;;4.42;4.03;;;;;;;17.60;100.00;100364.84;1686471;83;21076;-71
2022/08/09 02:23:43;;;;;;;6.03;4.17;;;;;;;17.58;100.00;100364.83;1690593;82;21036;-72
2022/08/09 02:26:13;;;;;;;5.22;4.00;;;;;;;17.54;100.00;100361.05;1709977;83;21123;-72
2022/08/09 02:28:52;;;;;;;4.55;4.05;;;;;;;17.50;100.00;100368.96;1694761;83;21037;-72
2022/08/09 02:31:24;;;;;;;3.87;3.47;;;;;;;17.54;100.00;100367.84;1709559;84;21088;-73
2022/08/09 02:33:53;;;;;;;3.42;3.20;;;;;;;17.53;100.00;100372.47;1709686;83;21037;-73
2022/08/09 02:36:33;;;;;;;6.30;3.70;;;;;;;17.55;100.00;100370.30;1721565;82;21088;-73
2022/08/09 02:39:04;;;;;;;4.70;3.50;;;;;;;17.54;100.00;100363.23;1704023;83;21095;-73
2022/08/09 02:41:39;;;;;;;4.28;3.65;;;;;;;17.53;100.00;100365.67;1711704;82;21768;-73
2022/08/09 02:44:09;;;;;;;4.10;3.65;;;;;;;17.47;100.00;100372.77;1718597;83;21004;-72
2022/08/09 02:46:35;;;;;;;4.85;3.87;;;;;;;17.43;100.00;100367.08;1681799;83;20995;-73
2022/08/09 02:49:05;;;;;;;6.53;3.87;;;;;;;17.36;100.00;100374.16;1717627;82;21500;-72
2022/08/09 02:51:35;;;;;;;4.28;3.77;;;;;;;17.34;100.00;100383.16;1716966;83;20952;-73
2022/08/09 02:54:03;;;;;;;4.15;3.70;;;;;;;17.37;100.00;100373.62;1706080;82;21127;-73
2022/08/09 02:56:31;;;;;;;8.40;4.15;;;;;;;17.35;100.00;100371.20;1738568;82;21541;-73
2022/08/09 02:59:00;;;;;;;3.75;3.45;;;;;;;17.39;100.00;100374.98;1723316;82;21581;-73
2022/08/09 03:01:28;;;;;;;3.62;3.33;;;;;;;17.36;100.00;100370.66;1711294;83;21576;-73
2022/08/09 03:03:54;;;;;;;3.98;3.60;;;;;;;17.34;100.00;100376.36;1711071;83;22228;-73
2022/08/09 03:06:21;;;;;;;7.87;3.98;;;;;;;17.31;100.00;100375.53;1711180;83;21271;-72
2022/08/09 03:08:48;;;;;;;4.30;3.92;;;;;;;17.26;100.00;100374.77;1706379;82;21017;-73
2022/08/09 03:11:17;;;;;;;3.80;3.50;;;;;;;17.24;100.00;100368.78;1671339;83;21110;-72
2022/08/09 03:13:46;;;;;;;4.80;3.40;;;;;;;17.24;100.00;100365.52;1751856;81;21529;-73
2022/08/09 03:16:14;;;;;;;3.25;2.95;;;;;;;17.26;100.00;100375.58;1738516;82;21089;-73
2022/08/09 03:18:41;;;;;;;4.60;3.60;;;;;;;17.28;100.00;100376.09;1704651;82;21810;-73
2022/08/09 03:21:08;;;;;;;4.08;3.77;;;;;;;17.24;100.00;100377.75;1709484;83;20925;-72
2022/08/09 03:23:36;;;;;;;3.52;3.22;;;;;;;17.28;100.00;100372.02;1709223;83;21572;-72
2022/08/09 03:26:04;;;;;;;5.17;3.77;;;;;;;17.30;100.00;100371.21;1709603;83;21009;-74
2022/08/09 03:28:31;;;;;;;3.10;2.80;;;;;;;17.26;100.00;100373.41;1710403;83;21013;-74
2022/08/09 03:30:57;;;;;;;3.72;3.42;;;;;;;17.26;100.00;100375.58;1704012;83;21904;-74
2022/08/09 03:33:24;;;;;;;3.52;3.22;;;;;;;17.25;100.00;100384.00;1710566;82;21004;-74
2022/08/09 03:35:51;;;;;;;4.40;3.25;;;;;;;17.25;100.00;100389.44;1704715;83;20976;-74
2022/08/09 03:38:19;;;;;;;3.65;2.98;;;;;;;17.26;100.00;100388.36;1704110;83;21627;-75
2022/08/09 03:40:46;;;;;;;5.17;3.10;;;;;;;17.28;100.00;100385.62;1711428;83;21040;-74
2022/08/09 03:43:12;;;;;;;2.95;2.75;;;;;;;17.31;100.00;100382.33;1709713;83;21866;-75
2022/08/09 03:45:40;;;;;;;3.85;3.20;;;;;;;17.38;100.00;100380.14;1709529;84;21164;-73
2022/08/09 03:48:07;;;;;;;3.87;3.42;;;;;;;17.47;100.00;100376.84;1727527;82;21040;-73
2022/08/09 03:50:34;;;;;;;4.25;3.40;;;;;;;17.50;100.00;100381.20;1708119;83;21091;-73
2022/08/09 03:53:02;;;;;;;3.22;2.62;;;;;;;17.56;100.00;100375.98;1705293;82;22118;-74
2022/08/09 03:55:29;;;;;;;2.50;2.30;;;;;;;17.63;100.00;100375.72;1711170;83;21251;-73
2022/08/09 03:57:56;;;;;;;3.08;2.50;;;;;;;17.69;100.00;100384.13;1710678;83;21070;-73
2022/08/09 04:00:23;;;;;;;2.80;2.60;;;;;;;17.71;100.00;100392.27;1709653;83;21045;-73
2022/08/09 04:02:50;;;;;;;3.27;2.80;;;;;;;17.74;100.00;100395.00;1687314;84;21139;-74
2022/08/09 04:05:17;;;;;;;4.03;2.83;;;;;;;17.73;100.00;100392.81;1687307;84;21044;-73
2022/08/09 04:07:44;;;;;;;2.87;2.60;;;;;;;17.74;100.00;100393.64;1712054;82;21235;-74
2022/08/09 04:10:11;;;;;;;3.33;3.02;;;;;;;17.74;100.00;100379.48;1687303;84;21016;-74
2022/08/09 04:12:45;;;;;;;3.70;2.70;;;;;;;17.76;100.00;100390.06;1709513;83;21544;-74
2022/08/09 04:15:13;;;;;;;3.08;2.22;;;;;;;17.73;100.00;100385.20;1709832;83;20910;-74
2022/08/09 04:17:41;;;;;;;2.50;2.30;;;;;;;17.76;100.00;100380.55;1709277;83;21762;-74
2022/08/09 04:20:10;;;;;;;2.92;2.65;;;;;;;17.82;100.00;100387.59;1711118;83;21240;-76
2022/08/09 04:22:38;;;;;;;3.72;3.30;;;;;;;17.85;100.00;100383.76;1693332;82;21028;-73
2022/08/09 04:25:07;;;;;;;2.25;2.15;;;;;;;17.89;100.00;100381.28;1738300;82;21143;-74
2022/08/09 04:27:39;;;;;;;2.05;1.95;;;;;;;17.95;100.00;100372.55;1709655;82;21119;-72
2022/08/09 04:30:05;;;;;;;7.87;5.42;;;;;;;18.01;100.00;100380.95;1708798;83;21561;-71
2022/08/09 04:32:33;;;;;;;3.75;3.00;;;;;;;18.09;100.00;100381.70;1687543;84;21814;-72
2022/08/09 04:34:59;;;;;;;2.65;2.45;;;;;;;18.12;99.48;100382.52;1709521;83;21663;-72
2022/08/09 04:37:26;;;;;;;2.30;1.82;;;;;;;18.14;98.98;100378.41;1714376;82;21051;-72
2022/08/09 04:39:52;;;;;;;2.27;2.15;;;;;;;18.14;98.84;100383.85;1701572;83;21494;-73
2022/08/09 04:42:20;;;;;;;3.25;2.37;;;;;;;18.20;98.48;100380.00;1737778;82;21741;-72
2022/08/09 04:44:46;;;;;;;3.72;1.90;;;;;;;18.26;98.28;100377.52;1727678;82;21830;-72
2022/08/09 04:47:14;;;;;;;2.67;2.47;;;;;;;18.34;97.16;100380.17;1711156;83;21004;-71
2022/08/09 04:49:42;;;;;;;2.83;2.25;;;;;;;18.39;97.17;100392.94;1688568;83;21111;-71
2022/08/09 04:52:08;;;;;;;3.98;2.30;;;;;;;18.43;96.69;100387.17;1716767;83;21111;-71
2022/08/09 04:54:35;;;;;;;7.72;2.27;;;;;;;18.47;96.26;100381.42;1716533;82;21612;-72
2022/08/09 04:57:02;;;;;;;2.60;2.20;;;;;;;18.49;95.23;100386.05;1717925;83;21108;-73
2022/08/09 04:59:29;;;;;;;4.28;3.92;;;;;;;18.56;95.14;100378.41;1729864;81;21549;-72
2022/08/09 05:01:56;;;;;;;6.15;3.83;;;;;;;18.66;94.46;100380.47;1745193;81;21108;-72
2022/08/09 05:04:23;;;;;;;6.78;5.87;;;;;;;18.74;92.89;100380.42;1717054;82;21023;-73
2022/08/09 05:06:49;;;;;;;7.75;3.10;;;;;;;18.83;92.71;100380.60;1739348;81;21128;-73
2022/08/09 05:09:17;;;;;;;4.90;2.75;;;;;;;18.93;92.50;100376.41;1714500;82;21134;-73
2022/08/09 05:11:44;;;;;;;2.60;2.40;;;;;;;19.05;92.30;100374.09;1717539;82;21585;-74
2022/08/09 05:14:10;;;;;;;6.33;2.02;;;;;;;19.13;91.60;100370.75;1718270;83;21088;-74
2022/08/09 05:16:37;;;;;;;3.75;2.95;;;;;;;19.22;91.19;100373.65;1718504;83;21725;-73
2022/08/09 05:19:04;;;;;;;2.90;1.87;;;;;;;19.28;90.70;100376.02;1726622;82;21022;-73
2022/08/09 05:21:31;;;;;;;2.50;2.30;;;;;;;19.35;90.12;100379.22;1733649;82;21248;-72
2022/08/09 05:23:58;;;;;;;2.33;2.22;;;;;;;19.42;89.74;100385.14;1706388;82;21049;-72
2022/08/09 05:26:25;;;;;;;2.72;2.05;;;;;;;19.46;89.02;100387.58;1709787;83;21051;-72
2022/08/09 05:28:52;;;;;;;1.90;1.80;;;;;;;19.52;88.84;100382.84;1711693;82;21506;-73
2022/08/09 05:31:18;;;;;;;2.35;2.15;;;;;;;19.56;89.00;100388.82;1710118;83;21056;-71
2022/08/09 05:33:46;;;;;;;3.83;2.20;;;;;;;19.65;88.95;100384.06;1710091;84;21157;-72
2022/08/09 05:36:14;;;;;;;2.35;1.98;;;;;;;19.71;88.65;100388.36;1711121;82;21546;-73
2022/08/09 05:38:40;;;;;;;1.95;1.75;;;;;;;19.77;87.11;100381.70;1709213;82;21092;-72
2022/08/09 05:41:08;;;;;;;4.60;1.92;;;;;;;19.82;86.32;100385.73;1713591;82;21047;-72
2022/08/09 05:43:36;;;;;;;2.98;1.98;;;;;;;19.87;85.03;100380.20;1709561;82;22157;-71
2022/08/09 05:46:03;;;;;;;3.08;2.05;;;;;;;19.91;84.08;100388.88;1709503;83;21105;-72
2022/08/09 05:48:30;;;;;;;4.22;1.72;;;;;;;19.97;83.54;100390.44;1709660;83;21377;-72
2022/08/09 05:50:56;;;;;;;2.47;1.70;;;;;;;20.01;82.88;100384.64;1703762;83;21009;-72
2022/08/09 05:53:23;;;;;;;3.60;2.10;;;;;;;20.08;83.49;100384.28;1705681;82;21056;-71
2022/08/09 05:55:50;;;;;;;1.80;1.67;;;;;;;20.14;83.54;100390.48;1715667;82;21120;-71
2022/08/09 05:58:19;;;;;;;2.37;1.75;;;;;;;20.17;83.61;100379.77;1750431;81;20984;-71
2022/08/09 06:00:45;;;;;;;2.08;1.95;;;;;;;20.27;83.39;100389.73;1740000;81;20981;-70
2022/08/09 06:03:12;;;;;;;2.05;1.90;;;;;;;20.32;82.62;100388.31;1733072;82;20989;-70
2022/08/09 06:05:39;;;;;;;1.60;1.50;;;;;;;20.35;81.53;100384.98;1710949;83;20981;-71
2022/08/09 06:08:09;;;;;;;4.80;2.08;;;;;;;20.39;81.41;100395.02;1711328;82;21016;-71
2022/08/09 06:10:37;;;;;;;2.65;1.90;;;;;;;20.44;80.31;100384.00;1712118;82;20984;-71
2022/08/09 06:13:09;;;;;;;1.85;1.75;;;;;;;20.50;80.21;100394.30;1709552;83;20972;-69
2022/08/09 06:15:37;;;;;;;4.37;2.75;;;;;;;20.56;79.47;100398.59;1709512;82;21059;-71
2022/08/09 06:18:06;;;;;;;7.00;3.12;;;;;;;20.65;79.26;100393.24;1746191;82;21105;-70
2022/08/09 06:20:33;;;;;;;2.37;1.98;;;;;;;20.70;78.52;100396.70;1739917;82;21089;-72
2022/08/09 06:23:00;;;;;;;2.98;1.82;;;;;;;20.74;78.08;100400.45;1720815;82;21135;-71
2022/08/09 06:25:28;;;;;;;1.77;1.67;;;;;;;20.77;76.64;100388.09;1680035;84;21040;-71
2022/08/09 06:27:54;;;;;;;2.20;1.80;;;;;;;20.68;74.47;100396.18;1679788;83;21137;-72
2022/08/09 06:30:21;;;;;;;3.25;1.65;;;;;;;20.69;75.37;100395.63;1686223;85;21518;-72
2022/08/09 06:32:50;;;;;;;1.75;1.65;;;;;;;20.72;74.79;100399.16;1680521;85;21070;-70
2022/08/09 06:35:16;;;;;;;2.05;1.80;;;;;;;20.79;75.33;100391.36;1661672;84;21105;-69
2022/08/09 06:37:43;;;;;;;1.40;1.30;;;;;;;20.88;75.28;100397.20;1675468;85;21004;-70
2022/08/09 06:40:11;;;;;;;2.95;2.40;;;;;;;20.98;73.38;100403.59;1683995;84;21034;-70
2022/08/09 06:42:38;;;;;;;1.77;1.67;;;;;;;20.97;72.47;100401.41;1677301;84;21029;-71
2022/08/09 06:45:08;;;;;;;2.30;1.60;;;;;;;20.98;72.57;100398.94;1684028;83;21060;-72
2022/08/09 06:47:37;;;;;;;1.65;1.55;;;;;;;21.01;72.59;100402.98;1745949;82;21612;-72
2022/08/09 06:50:06;;;;;;;1.52;1.42;;;;;;;21.06;72.11;100411.09;1738206;82;21002;-73
2022/08/09 06:52:33;;;;;;;2.60;1.60;;;;;;;21.14;71.88;100407.72;1715303;82;21150;-73
2022/08/09 06:54:59;;;;;;;1.50;1.40;;;;;;;21.27;71.38;100421.95;1711833;82;21125;-71
2022/08/09 06:57:26;;;;;;;1.50;1.40;;;;;;;21.34;69.88;100418.28;1723490;82;21111;-73
2022/08/09 06:59:53;;;;;;;1.60;1.50;;;;;;;21.40;70.03;100410.20;1739667;82;21671;-72
2022/08/09 07:02:20;;;;;;;1.85;1.75;;;;;;;21.44;70.01;100406.32;1738272;82;20985;-72
2022/08/09 07:04:47;;;;;;;2.75;1.70;;;;;;;21.43;71.28;100415.08;1721430;82;21162;-72
2022/08/09 07:07:14;;;;;;;2.72;2.17;;;;;;;21.39;69.50;100420.88;1706652;82;21081;-71
2022/08/09 07:09:43;;;;;;;6.90;2.58;;;;;;;21.37;70.15;100422.32;1704331;83;21059;-73
2022/08/09 07:12:11;;;;;;;7.20;3.42;;;;;;;21.38;71.03;100415.19;1710255;82;21201;-72
2022/08/09 07:14:38;;;;;;;1.70;1.60;;;;;;;21.38;71.69;100424.77;1711129;83;21529;-71
2022/08/09 07:17:05;;;;;;;3.30;1.70;;;;;;;21.42;72.05;100427.69;1708649;83;20973;-71
2022/08/09 07:19:32;;;;;;;2.12;1.60;;;;;;;21.45;71.83;100429.26;1709455;83;21044;-70
2022/08/09 07:21:59;;;;;;;3.15;1.40;;;;;;;21.50;71.66;100427.79;1709584;83;21028;-70
2022/08/09 07:24:29;;;;;;;1.75;1.65;;;;;;;21.50;70.64;100432.45;1710242;82;21182;-68
2022/08/09 07:26:57;;;;;;;6.33;1.72;;;;;;;21.46;70.29;100421.86;1715657;82;21556;-71
2022/08/09 07:29:25;;;;;;;2.08;1.98;;;;;;;21.46;70.74;100430.07;1756989;81;20921;-71
2022/08/09 07:31:54;;;;;;;3.45;2.12;;;;;;;21.43;69.95;100439.72;1729339;81;21029;-70
2022/08/09 07:34:22;;;;;;;4.62;1.67;;;;;;;21.42;69.53;100438.64;1713322;82;21063;-73
2022/08/09 07:36:49;;;;;;;2.35;1.40;;;;;;;21.47;69.61;100431.15;1721713;82;21872;-69
2022/08/09 07:39:17;;;;;;;1.60;1.50;;;;;;;21.52;69.42;100432.97;1710405;82;21064;-70
2022/08/09 07:41:44;;;;;;;1.60;1.47;;;;;;;21.58;68.88;100438.02;1720606;81;21021;-72
2022/08/09 07:44:11;;;;;;;4.62;1.72;;;;;;;21.62;67.89;100435.51;1709107;82;21021;-71
2022/08/09 07:46:39;;;;;;;1.47;1.37;;;;;;;21.63;66.96;100433.03;1699223;83;21106;-72
2022/08/09 07:49:06;;;;;;;6.90;1.50;;;;;;;21.61;65.69;100421.00;1711010;83;21240;-70
2022/08/09 07:51:33;;;;;;;2.65;1.37;;;;;;;21.61;66.27;100433.87;1709732;83;21048;-70
2022/08/09 07:54:00;;;;;;;2.30;1.32;;;;;;;21.65;64.61;100428.86;1709069;82;21044;-72
2022/08/09 07:56:26;;;;;;;3.27;1.70;;;;;;;21.71;64.87;100426.83;1709283;83;21496;-73
2022/08/09 07:58:54;;;;;;;2.75;1.90;;;;;;;21.72;63.97;100433.37;1710126;82;21004;-70
2022/08/09 08:01:20;;;;;;;2.12;1.60;;;;;;;21.72;64.28;100437.48;1719962;81;21079;-71
2022/08/09 08:03:48;;;;;;;3.87;1.47;;;;;;;21.72;65.04;100431.20;1710433;83;21493;-72
2022/08/09 08:06:15;;;;;;;2.40;1.82;;;;;;;21.77;65.55;100439.31;1706116;83;20993;-69
2022/08/09 08:08:42;;;;;;;2.45;2.10;;;;;;;21.79;65.84;100432.13;1712847;82;21073;-72
2022/08/09 08:11:08;;;;;;;2.75;1.80;;;;;;;21.83;66.00;100427.11;1717813;82;21020;-73
2022/08/09 08:13:35;;;;;;;2.05;1.42;;;;;;;21.92;66.18;100434.84;1717633;82;21221;-72
2022/08/09 08:16:02;;;;;;;1.52;1.42;;;;;;;21.99;64.83;100446.80;1718519;82;21061;-71
2022/08/09 08:18:29;;;;;;;5.90;2.02;;;;;;;22.00;64.74;100442.39;1724593;82;21507;-71
2022/08/09 08:20:57;;;;;;;3.20;1.57;;;;;;;22.05;65.02;100435.44;1711118;82;21093;-72
2022/08/09 08:23:24;;;;;;;1.52;1.42;;;;;;;22.13;64.55;100437.99;1722658;82;21029;-70
2022/08/09 08:25:52;;;;;;;3.67;1.82;;;;;;;22.18;62.18;100444.17;1713069;82;21122;-73
2022/08/09 08:28:20;;;;;;;1.20;1.10;;;;;;;22.22;62.19;100432.58;1710304;82;21589;-70
2022/08/09 08:30:46;;;;;;;6.60;1.55;;;;;;;22.18;61.73;100440.06;1717190;82;21019;-70
2022/08/09 08:33:14;;;;;;;3.67;1.45;;;;;;;22.01;61.20;100437.73;1716539;82;21009;-70
2022/08/09 08:35:40;;;;;;;2.22;1.50;;;;;;;21.97;60.97;100438.06;1723615;81;21068;-72
2022/08/09 08:38:07;;;;;;;1.32;1.05;;;;;;;21.95;60.92;100442.50;1737177;81;21390;-71
2022/08/09 08:40:34;;;;;;;1.92;1.62;;;;;;;21.96;60.16;100437.84;1701535;81;21004;-72
2022/08/09 08:43:04;;;;;;;4.40;2.20;;;;;;;21.97;60.18;100436.70;1718865;81;21055;-69
2022/08/09 08:45:41;;;;;;;6.97;2.15;;;;;;;22.01;60.59;100441.84;1718447;83;21043;-69
2022/08/09 08:48:08;;;;;;;2.22;1.55;;;;;;;21.98;60.87;100433.66;1732126;81;21023;-70
2022/08/09 08:50:35;;;;;;;1.70;1.52;;;;;;;21.96;61.68;100433.17;1731251;82;21236;-70
2022/08/09 08:53:02;;;;;;;4.15;2.87;;;;;;;21.99;62.45;100438.03;1709931;81;21011;-69
2022/08/09 08:55:29;;;;;;;1.90;1.72;;;;;;;21.97;62.07;100447.10;1736483;81;21054;-71
2022/08/09 08:57:56;;;;;;;1.52;1.42;;;;;;;21.95;62.19;100437.58;1699544;83;21067;-70
2022/08/09 09:00:30;;;;;;;2.17;1.72;;;;;;;21.93;60.57;100435.66;1718009;83;20964;-72
2022/08/09 09:02:59;;;;;;;1.20;1.10;;;;;;;21.98;59.28;100437.77;1716283;83;22073;-71
2022/08/09 09:05:26;;;;;;;5.25;1.87;;;;;;;22.04;60.02;100428.33;1718220;83;21019;-71
2022/08/09 09:07:53;;;;;;;2.27;2.05;;;;;;;22.15;60.04;100437.95;1718209;83;20952;-71
2022/08/09 09:10:20;;;;;;;1.30;1.20;;;;;;;22.25;59.99;100434.17;1717850;82;21081;-71
2022/08/09 09:12:47;;;;;;;3.52;1.30;;;;;;;22.32;59.78;100437.84;1678553;83;21072;-72
2022/08/09 09:15:15;;;;;;;1.37;1.27;;;;;;;22.30;59.70;100442.25;1709403;83;21209;-69
2022/08/09 09:17:42;;;;;;;2.08;1.55;;;;;;;22.30;59.52;100434.02;1709406;84;21040;-69
2022/08/09 09:20:11;;;;;;;4.35;2.00;;;;;;;22.30;59.95;100431.28;1709403;83;21537;-69
2022/08/09 09:22:56;;;;;;;1.80;1.70;;;;;;;22.34;59.14;100426.83;1709736;84;21068;-70
2022/08/09 09:25:42;;;;;;;1.50;1.40;;;;;;;22.39;58.98;100430.01;1694453;84;21107;-71
2022/08/09 09:28:10;;;;;;;2.27;1.90;;;;;;;22.44;58.90;100427.15;1703613;83;21087;-70
2022/08/09 09:30:54;;;;;;;1.40;1.30;;;;;;;22.52;58.06;100428.58;1709253;82;21080;-71
2022/08/09 09:33:23;;;;;;;1.47;1.27;;;;;;;22.58;56.10;100423.23;1709243;84;21048;-70
2022/08/09 09:35:58;;;;;;;2.20;1.12;;;;;;;22.63;54.42;100425.03;1687702;84;21110;-71
2022/08/09 09:38:47;;;;;;;2.35;1.47;;;;;;;22.70;54.86;100428.16;1703947;84;21048;-72
2022/08/09 09:41:29;;;;;;;1.60;1.20;;;;;;;22.75;52.75;100423.92;1709748;84;21240;-69
2022/08/09 09:43:59;;;;;;;1.35;1.22;;;;;;;22.77;52.26;100421.69;1688232;83;21043;-71
2022/08/09 09:46:39;;;;;;;3.65;2.55;;;;;;;22.81;53.02;100423.23;1695286;83;21040;-70
2022/08/09 09:49:11;;;;;;;1.65;1.55;;;;;;;22.85;53.72;100420.11;1688919;84;21019;-69
2022/08/09 09:51:40;;;;;;;1.20;1.10;;;;;;;22.88;54.06;100425.77;1709816;83;21087;-71
2022/08/09 09:54:21;;;;;;;3.15;1.57;;;;;;;22.86;54.53;100421.73;1709869;84;21080;-70
2022/08/09 09:56:49;;;;;;;1.27;1.10;;;;;;;22.85;55.03;100428.34;1689055;84;21092;-70
2022/08/09 09:59:34;;;;;;;1.45;1.35;;;;;;;22.88;55.07;100439.49;1688025;84;21000;-73
2022/08/09 10:02:07;;;;;;;4.72;1.10;;;;;;;22.91;55.05;100426.54;1675927;83;21021;-69
2022/08/09 10:04:35;;;;;;;1.50;1.40;;;;;;;22.92;54.39;100427.35;1674928;85;21117;-71
2022/08/09 10:07:04;;;;;;;5.05;1.10;;;;;;;22.96;53.54;100425.03;1674646;85;21493;-72
2022/08/09 10:09:47;;;;;;;6.62;1.37;;;;;;;23.04;52.58;100422.08;1674564;85;21053;-69
2022/08/09 10:12:25;;;;;;;1.92;1.15;;;;;;;23.11;51.61;100410.66;1674685;85;21041;-70
2022/08/09 10:15:15;;;;;;;2.75;1.20;;;;;;;23.18;51.13;100411.81;1678564;82;21626;-70
2022/08/09 10:17:46;;;;;;;9.40;1.00;;;;;;;23.19;51.51;100409.33;1709329;83;21488;-70
2022/08/09 10:20:22;;;;;;;1.70;1.12;;;;;;;23.20;50.98;100417.00;1709600;84;21915;-69
2022/08/09 10:22:53;;;;;;;1.20;1.10;;;;;;;23.21;49.89;100412.58;1709561;84;20949;-71
2022/08/09 10:25:20;;;;;;;1.85;1.25;;;;;;;23.28;48.91;100411.55;1708861;83;23537;-71
2022/08/09 10:27:46;;;;;;;2.50;1.20;;;;;;;23.33;48.24;100414.70;1689166;83;21572;-72
2022/08/09 10:30:15;;;;;;;0.90;0.88;;;;;;;23.32;49.02;100411.15;1711298;83;36734;-71
2022/08/09 10:32:42;;;;;;;2.15;1.17;;;;;;;23.31;47.03;100423.84;1709150;82;21143;-71
2022/08/09 10:35:10;;;;;;;0.88;0.88;;;;;;;23.28;48.96;100415.66;1706009;83;21510;-69
2022/08/09 10:37:37;;;;;;;0.82;0.80;;;;;;;23.24;48.46;100422.91;1707236;84;21081;-69
2022/08/09 10:40:08;;;;;;;1.00;1.00;;;;;;;23.25;48.42;100425.09;1707090;84;21045;-68
2022/08/09 10:42:36;;;;;;;0.70;0.70;;;;;;;23.25;49.15;100410.81;1685229;84;21757;-70
2022/08/09 10:45:06;;;;;;;2.85;1.50;;;;;;;23.28;50.34;100412.11;1707214;84;21346;-70
2022/08/09 10:48:04;;;;;;;2.40;1.30;;;;;;;23.26;50.74;100408.88;1708240;83;21054;-70
2022/08/09 10:51:11;;;;;;;7.87;1.40;;;;;;;23.18;51.07;100403.58;1705712;83;21005;-68
2022/08/09 10:54:00;;;;;;;1.30;1.20;;;;;;;23.14;51.49;100399.86;1707178;84;21113;-69
2022/08/09 10:56:34;;;;;;;1.32;1.22;;;;;;;23.16;51.78;100396.24;1707005;84;21109;-70
2022/08/09 10:59:11;;;;;;;1.60;1.50;;;;;;;23.19;52.27;100397.53;1696000;84;21148;-70
2022/08/09 11:01:38;;;;;;;4.20;1.55;;;;;;;23.16;51.72;100396.24;1695914;84;21550;-71
2022/08/09 11:04:13;;;;;;;1.32;0.90;;;;;;;23.11;49.81;100412.03;1706843;83;21126;-70
2022/08/09 11:06:41;;;;;;;1.98;1.25;;;;;;;23.09;50.53;100392.31;1707649;84;21062;-70
2022/08/09 11:09:09;;;;;;;2.52;1.02;;;;;;;22.96;50.95;100396.78;1707190;84;21057;-72
2022/08/09 11:12:03;;;;;;;1.42;1.30;;;;;;;22.94;51.71;100393.53;1709142;83;21153;-70
2022/08/09 11:14:36;;;;;;;3.58;1.02;;;;;;;22.97;51.35;100391.55;1707403;84;20966;-69
2022/08/09 11:17:15;;;;;;;3.12;1.02;;;;;;;22.92;51.57;100391.12;1702190;83;21639;-71
2022/08/09 11:20:09;;;;;;;1.30;1.20;;;;;;;22.92;52.33;100384.83;1695494;83;21001;-71
2022/08/09 11:22:47;;;;;;;3.83;1.40;;;;;;;22.90;52.36;100387.88;1708108;83;21078;-70
2022/08/09 11:25:28;;;;;;;1.70;1.27;;;;;;;22.89;52.59;100388.18;1706446;84;22094;-69
2022/08/09 11:27:56;;;;;;;1.00;0.98;;;;;;;22.91;53.18;100382.64;1707071;83;22239;-71
2022/08/09 11:30:31;;;;;;;8.75;1.42;;;;;;;22.92;52.30;100395.25;1707104;84;21021;-71
2022/08/09 11:33:19;;;;;;;1.17;1.07;;;;;;;22.91;51.17;100383.20;1696396;83;21083;-71
2022/08/09 11:35:59;;;;;;;1.57;1.20;;;;;;;22.88;50.15;100384.62;1692961;82;21131;-70